sensor_id;sensor_type;location;lat;lon;timestamp;pressure;altitude;pressure_sealevel;temperature;humidity
61408;BME280;47274;43.054;25.146;2023-07-13T00:00:35;95723.22;;;22.75;72.72
61408;BME280;47274;43.054;25.146;2023-07-13T00:03:02;95700.25;;;22.58;72.81
61408;BME280;47274;43.054;25.146;2023-07-13T00:05:28;95730.13;;;22.69;73.26
61408;BME280;47274;43.054;25.146;2023-07-13T00:07:54;95671.75;;;22.32;73.29
61408;BME280;47274;43.054;25.146;2023-07-13T00:10:21;95718.50;;;22.65;72.95
61408;BME280;47274;43.054;25.146;2023-07-13T00:12:47;95635.44;;;22.23;72.67
61408;BME280;47274;43.054;25.146;2023-07-13T00:15:17;95715.00;;;22.89;71.57
61408;BME280;47274;43.054;25.146;2023-07-13T00:17:57;95691.03;;;22.74;70.74
61408;BME280;47274;43.054;25.146;2023-07-13T00:20:24;95712.78;;;22.93;70.68
61408;BME280;47274;43.054;25.146;2023-07-13T00:22:51;95683.81;;;22.69;69.93
61408;BME280;47274;43.054;25.146;2023-07-13T00:25:22;95697.78;;;22.82;68.68
61408;BME280;47274;43.054;25.146;2023-07-13T00:27:56;95660.28;;;22.51;69.06
61408;BME280;47274;43.054;25.146;2023-07-13T00:30:22;95689.94;;;22.82;68.75
61408;BME280;47274;43.054;25.146;2023-07-13T00:32:50;95701.38;;;22.87;67.81
61408;BME280;47274;43.054;25.146;2023-07-13T00:35:16;95683.75;;;22.76;68.84
61408;BME280;47274;43.054;25.146;2023-07-13T00:37:42;95685.53;;;22.64;68.89
61408;BME280;47274;43.054;25.146;2023-07-13T00:40:10;95671.34;;;22.53;69.13
61408;BME280;47274;43.054;25.146;2023-07-13T00:42:37;95675.31;;;22.56;69.28
61408;BME280;47274;43.054;25.146;2023-07-13T00:47:30;95689.00;;;22.76;69.70
61408;BME280;47274;43.054;25.146;2023-07-13T00:49:56;95678.88;;;22.80;68.70
61408;BME280;47274;43.054;25.146;2023-07-13T00:52:23;95694.94;;;22.83;69.15
61408;BME280;47274;43.054;25.146;2023-07-13T00:54:49;95685.03;;;22.74;69.16
61408;BME280;47274;43.054;25.146;2023-07-13T00:57:17;95690.97;;;22.81;69.06
61408;BME280;47274;43.054;25.146;2023-07-13T00:59:47;95681.44;;;22.86;68.70
61408;BME280;47274;43.054;25.146;2023-07-13T01:02:14;95666.25;;;22.77;68.40
61408;BME280;47274;43.054;25.146;2023-07-13T01:04:41;95674.31;;;22.75;68.20
61408;BME280;47274;43.054;25.146;2023-07-13T01:07:11;95690.06;;;22.87;67.98
61408;BME280;47274;43.054;25.146;2023-07-13T01:09:37;95672.31;;;22.77;68.73
61408;BME280;47274;43.054;25.146;2023-07-13T01:12:03;95673.59;;;22.68;67.76
61408;BME280;47274;43.054;25.146;2023-07-13T01:14:30;95675.84;;;22.64;68.25
61408;BME280;47274;43.054;25.146;2023-07-13T01:16:56;95637.91;;;22.55;67.11
61408;BME280;47274;43.054;25.146;2023-07-13T01:19:36;95672.56;;;22.69;67.99
61408;BME280;47274;43.054;25.146;2023-07-13T01:22:10;95663.25;;;22.73;67.76
61408;BME280;47274;43.054;25.146;2023-07-13T01:24:40;95669.81;;;22.64;68.60
61408;BME280;47274;43.054;25.146;2023-07-13T01:27:09;95684.38;;;22.60;69.10
61408;BME280;47274;43.054;25.146;2023-07-13T01:29:37;95682.53;;;22.60;69.09
61408;BME280;47274;43.054;25.146;2023-07-13T01:32:13;95684.25;;;22.66;67.88
61408;BME280;47274;43.054;25.146;2023-07-13T01:34:40;95648.97;;;22.57;66.89
61408;BME280;47274;43.054;25.146;2023-07-13T01:37:11;95665.53;;;22.69;65.74
61408;BME280;47274;43.054;25.146;2023-07-13T01:39:37;95675.72;;;22.78;65.90
61408;BME280;47274;43.054;25.146;2023-07-13T01:42:03;95681.44;;;22.86;64.47
61408;BME280;47274;43.054;25.146;2023-07-13T01:44:29;95658.69;;;22.68;64.75
61408;BME280;47274;43.054;25.146;2023-07-13T01:46:57;95670.97;;;22.68;64.68
61408;BME280;47274;43.054;25.146;2023-07-13T01:49:23;95655.44;;;22.55;65.32
61408;BME280;47274;43.054;25.146;2023-07-13T01:51:49;95637.13;;;22.36;66.74
61408;BME280;47274;43.054;25.146;2023-07-13T01:54:14;95653.00;;;22.35;66.91
61408;BME280;47274;43.054;25.146;2023-07-13T01:56:40;95688.41;;;22.56;66.56
61408;BME280;47274;43.054;25.146;2023-07-13T01:59:08;95689.28;;;22.50;67.04
61408;BME280;47274;43.054;25.146;2023-07-13T02:01:33;95663.34;;;22.30;67.41
61408;BME280;47274;43.054;25.146;2023-07-13T02:03:59;95682.16;;;22.38;66.65
61408;BME280;47274;43.054;25.146;2023-07-13T02:06:27;95623.38;;;21.97;67.08
61408;BME280;47274;43.054;25.146;2023-07-13T02:08:54;95692.59;;;22.38;66.60
61408;BME280;47274;43.054;25.146;2023-07-13T02:11:19;95695.03;;;22.40;66.97
61408;BME280;47274;43.054;25.146;2023-07-13T02:13:45;95675.97;;;22.33;65.57
61408;BME280;47274;43.054;25.146;2023-07-13T02:16:14;95638.50;;;22.14;65.44
61408;BME280;47274;43.054;25.146;2023-07-13T02:18:40;95642.69;;;22.21;65.38
61408;BME280;47274;43.054;25.146;2023-07-13T02:21:06;95663.47;;;22.35;65.15
61408;BME280;47274;43.054;25.146;2023-07-13T02:23:33;95627.44;;;22.18;64.63
61408;BME280;47274;43.054;25.146;2023-07-13T02:26:01;95645.03;;;22.30;64.12
61408;BME280;47274;43.054;25.146;2023-07-13T02:28:28;95646.34;;;22.39;63.16
61408;BME280;47274;43.054;25.146;2023-07-13T02:30:54;95684.06;;;22.68;63.33
61408;BME280;47274;43.054;25.146;2023-07-13T02:33:20;95680.56;;;22.56;63.35
61408;BME280;47274;43.054;25.146;2023-07-13T02:35:47;95682.81;;;22.52;62.40
61408;BME280;47274;43.054;25.146;2023-07-13T02:38:13;95648.50;;;22.42;62.90
61408;BME280;47274;43.054;25.146;2023-07-13T02:40:39;95669.53;;;22.54;62.31
61408;BME280;47274;43.054;25.146;2023-07-13T02:43:05;95675.19;;;22.51;62.43
61408;BME280;47274;43.054;25.146;2023-07-13T02:45:31;95677.81;;;22.51;62.36
61408;BME280;47274;43.054;25.146;2023-07-13T02:47:57;95664.06;;;22.37;63.07
61408;BME280;47274;43.054;25.146;2023-07-13T02:50:23;95671.69;;;22.38;63.46
61408;BME280;47274;43.054;25.146;2023-07-13T02:52:48;95685.06;;;22.48;63.36
61408;BME280;47274;43.054;25.146;2023-07-13T02:55:14;95687.44;;;22.32;64.23
61408;BME280;47274;43.054;25.146;2023-07-13T02:57:40;95656.00;;;22.20;64.54
61408;BME280;47274;43.054;25.146;2023-07-13T03:00:07;95662.66;;;22.16;64.48
61408;BME280;47274;43.054;25.146;2023-07-13T03:02:34;95681.78;;;22.35;64.25
61408;BME280;47274;43.054;25.146;2023-07-13T03:05:04;95671.66;;;22.20;64.02
61408;BME280;47274;43.054;25.146;2023-07-13T03:07:31;95672.41;;;22.27;63.32
61408;BME280;47274;43.054;25.146;2023-07-13T03:09:58;95688.03;;;22.34;63.84
61408;BME280;47274;43.054;25.146;2023-07-13T03:12:32;95670.88;;;22.19;64.55
61408;BME280;47274;43.054;25.146;2023-07-13T03:14:59;95678.13;;;22.36;62.34
61408;BME280;47274;43.054;25.146;2023-07-13T03:17:24;95654.47;;;22.49;60.83
61408;BME280;47274;43.054;25.146;2023-07-13T03:19:51;95661.25;;;22.57;60.87
61408;BME280;47274;43.054;25.146;2023-07-13T03:22:21;95637.06;;;22.43;61.29
61408;BME280;47274;43.054;25.146;2023-07-13T03:24:47;95674.47;;;22.62;60.93
61408;BME280;47274;43.054;25.146;2023-07-13T03:27:16;95635.94;;;22.32;61.18
61408;BME280;47274;43.054;25.146;2023-07-13T03:29:43;95687.69;;;22.67;62.15
61408;BME280;47274;43.054;25.146;2023-07-13T03:32:10;95689.97;;;22.63;62.50
61408;BME280;47274;43.054;25.146;2023-07-13T03:34:37;95637.25;;;22.23;61.89
61408;BME280;47274;43.054;25.146;2023-07-13T03:37:03;95654.47;;;22.31;63.03
61408;BME280;47274;43.054;25.146;2023-07-13T03:39:28;95672.53;;;22.32;63.70
61408;BME280;47274;43.054;25.146;2023-07-13T03:41:57;95647.72;;;22.23;63.19
61408;BME280;47274;43.054;25.146;2023-07-13T03:44:23;95676.00;;;22.51;61.67
61408;BME280;47274;43.054;25.146;2023-07-13T03:46:53;95660.28;;;22.51;60.96
61408;BME280;47274;43.054;25.146;2023-07-13T03:49:22;95650.28;;;22.48;60.32
61408;BME280;47274;43.054;25.146;2023-07-13T03:51:48;95651.50;;;22.45;60.30
61408;BME280;47274;43.054;25.146;2023-07-13T03:54:14;95681.88;;;22.65;59.98
61408;BME280;47274;43.054;25.146;2023-07-13T03:56:39;95628.03;;;22.39;59.90
61408;BME280;47274;43.054;25.146;2023-07-13T03:59:07;95702.97;;;22.88;59.69
61408;BME280;47274;43.054;25.146;2023-07-13T04:01:33;95671.56;;;22.88;58.94
61408;BME280;47274;43.054;25.146;2023-07-13T04:03:59;95695.25;;;22.93;59.57
61408;BME280;47274;43.054;25.146;2023-07-13T04:06:28;95700.66;;;22.99;60.45
61408;BME280;47274;43.054;25.146;2023-07-13T04:08:57;95662.47;;;22.73;61.05
61408;BME280;47274;43.054;25.146;2023-07-13T04:11:30;95690.03;;;22.93;60.95
61408;BME280;47274;43.054;25.146;2023-07-13T04:13:59;95699.56;;;23.06;59.17
61408;BME280;47274;43.054;25.146;2023-07-13T04:16:25;95705.13;;;23.10;60.03
61408;BME280;47274;43.054;25.146;2023-07-13T04:18:55;95668.94;;;22.88;60.98
61408;BME280;47274;43.054;25.146;2023-07-13T04:21:26;95672.94;;;22.91;59.83
61408;BME280;47274;43.054;25.146;2023-07-13T04:23:53;95700.06;;;23.15;59.45
61408;BME280;47274;43.054;25.146;2023-07-13T04:26:19;95694.94;;;23.20;60.46
61408;BME280;47274;43.054;25.146;2023-07-13T04:28:47;95675.13;;;23.12;59.70
61408;BME280;47274;43.054;25.146;2023-07-13T04:31:14;95694.94;;;23.38;59.61
61408;BME280;47274;43.054;25.146;2023-07-13T04:33:40;95683.25;;;23.23;60.59
61408;BME280;47274;43.054;25.146;2023-07-13T04:36:06;95679.69;;;23.17;59.87
61408;BME280;47274;43.054;25.146;2023-07-13T04:38:36;95640.22;;;23.00;60.46
61408;BME280;47274;43.054;25.146;2023-07-13T04:41:04;95677.06;;;23.17;60.68
61408;BME280;47274;43.054;25.146;2023-07-13T04:43:32;95709.25;;;23.36;60.54
61408;BME280;47274;43.054;25.146;2023-07-13T04:46:04;95706.84;;;23.34;61.46
61408;BME280;47274;43.054;25.146;2023-07-13T04:48:31;95703.06;;;23.30;60.96
61408;BME280;47274;43.054;25.146;2023-07-13T04:50:58;95707.00;;;23.39;60.67
61408;BME280;47274;43.054;25.146;2023-07-13T04:53:24;95721.94;;;23.51;59.72
61408;BME280;47274;43.054;25.146;2023-07-13T04:55:51;95661.34;;;23.17;59.62
61408;BME280;47274;43.054;25.146;2023-07-13T04:58:17;95699.31;;;23.56;58.29
61408;BME280;47274;43.054;25.146;2023-07-13T05:00:43;95671.22;;;23.33;58.25
61408;BME280;47274;43.054;25.146;2023-07-13T05:03:08;95707.28;;;23.61;59.20
61408;BME280;47274;43.054;25.146;2023-07-13T05:05:37;95710.63;;;23.69;60.40
61408;BME280;47274;43.054;25.146;2023-07-13T05:08:03;95671.84;;;23.59;60.25
61408;BME280;47274;43.054;25.146;2023-07-13T05:10:29;95695.94;;;23.68;59.35
61408;BME280;47274;43.054;25.146;2023-07-13T05:12:55;95664.56;;;23.49;59.21
61408;BME280;47274;43.054;25.146;2023-07-13T05:15:22;95701.00;;;23.81;58.74
61408;BME280;47274;43.054;25.146;2023-07-13T05:17:49;95728.97;;;24.10;58.46
61408;BME280;47274;43.054;25.146;2023-07-13T05:20:18;95675.72;;;23.86;59.53
61408;BME280;47274;43.054;25.146;2023-07-13T05:22:44;95728.19;;;24.22;59.17
61408;BME280;47274;43.054;25.146;2023-07-13T05:25:13;95726.94;;;24.24;56.81
61408;BME280;47274;43.054;25.146;2023-07-13T05:27:39;95727.59;;;24.20;54.46
61408;BME280;47274;43.054;25.146;2023-07-13T05:30:05;95722.16;;;24.21;54.33
61408;BME280;47274;43.054;25.146;2023-07-13T05:32:31;95686.53;;;24.13;53.13
61408;BME280;47274;43.054;25.146;2023-07-13T05:34:57;95703.91;;;24.50;52.92
61408;BME280;47274;43.054;25.146;2023-07-13T05:37:23;95697.72;;;24.68;54.89
61408;BME280;47274;43.054;25.146;2023-07-13T05:39:49;95719.19;;;24.76;52.42
61408;BME280;47274;43.054;25.146;2023-07-13T05:42:15;95707.66;;;24.89;51.64
61408;BME280;47274;43.054;25.146;2023-07-13T05:44:40;95701.44;;;24.95;52.53
61408;BME280;47274;43.054;25.146;2023-07-13T05:47:06;95722.78;;;24.99;51.56
61408;BME280;47274;43.054;25.146;2023-07-13T05:49:32;95732.13;;;25.18;56.04
61408;BME280;47274;43.054;25.146;2023-07-13T05:52:00;95698.56;;;25.09;54.81
61408;BME280;47274;43.054;25.146;2023-07-13T05:54:26;95722.22;;;25.20;55.77
61408;BME280;47274;43.054;25.146;2023-07-13T05:56:52;95741.00;;;25.29;55.50
61408;BME280;47274;43.054;25.146;2023-07-13T05:59:18;95745.59;;;25.22;56.65
61408;BME280;47274;43.054;25.146;2023-07-13T06:01:44;95746.59;;;25.33;56.56
61408;BME280;47274;43.054;25.146;2023-07-13T06:04:09;95746.63;;;25.61;56.78
61408;BME280;47274;43.054;25.146;2023-07-13T06:06:35;95709.28;;;25.31;54.51
61408;BME280;47274;43.054;25.146;2023-07-13T06:09:01;95743.09;;;25.15;52.87
61408;BME280;47274;43.054;25.146;2023-07-13T06:11:27;95742.84;;;25.28;55.94
61408;BME280;47274;43.054;25.146;2023-07-13T06:13:55;95746.91;;;25.36;55.57
61408;BME280;47274;43.054;25.146;2023-07-13T06:16:22;95761.34;;;25.62;53.89
61408;BME280;47274;43.054;25.146;2023-07-13T06:18:48;95760.59;;;25.79;54.08
61408;BME280;47274;43.054;25.146;2023-07-13T06:21:20;95752.41;;;25.63;53.66
61408;BME280;47274;43.054;25.146;2023-07-13T06:23:47;95750.44;;;25.70;54.97
61408;BME280;47274;43.054;25.146;2023-07-13T06:26:19;95753.72;;;25.77;53.29
61408;BME280;47274;43.054;25.146;2023-07-13T06:28:46;95735.78;;;25.58;52.05
61408;BME280;47274;43.054;25.146;2023-07-13T06:31:13;95762.97;;;25.92;52.19
61408;BME280;47274;43.054;25.146;2023-07-13T06:33:40;95772.53;;;26.15;52.88
61408;BME280;47274;43.054;25.146;2023-07-13T06:36:08;95763.06;;;26.14;53.32
61408;BME280;47274;43.054;25.146;2023-07-13T06:38:35;95736.91;;;26.07;52.88
61408;BME280;47274;43.054;25.146;2023-07-13T06:41:01;95749.59;;;26.61;52.08
61408;BME280;47274;43.054;25.146;2023-07-13T06:43:26;95759.47;;;26.37;50.11
61408;BME280;47274;43.054;25.146;2023-07-13T06:45:55;95744.72;;;26.36;50.59
61408;BME280;47274;43.054;25.146;2023-07-13T06:48:21;95760.91;;;26.61;49.54
61408;BME280;47274;43.054;25.146;2023-07-13T06:50:48;95753.22;;;26.77;50.91
61408;BME280;47274;43.054;25.146;2023-07-13T06:53:15;95755.69;;;27.44;50.84
61408;BME280;47274;43.054;25.146;2023-07-13T06:55:43;95767.59;;;27.74;49.91
61408;BME280;47274;43.054;25.146;2023-07-13T06:58:17;95761.38;;;27.80;47.11
61408;BME280;47274;43.054;25.146;2023-07-13T07:00:50;95754.84;;;27.65;48.12
61408;BME280;47274;43.054;25.146;2023-07-13T07:03:16;95760.19;;;27.49;50.49
61408;BME280;47274;43.054;25.146;2023-07-13T07:05:42;95738.91;;;27.28;48.56
61408;BME280;47274;43.054;25.146;2023-07-13T07:08:08;95739.75;;;27.56;48.73
61408;BME280;47274;43.054;25.146;2023-07-13T07:10:35;95756.97;;;27.91;49.55
61408;BME280;47274;43.054;25.146;2023-07-13T07:13:01;95762.22;;;28.18;46.91
61408;BME280;47274;43.054;25.146;2023-07-13T07:15:27;95756.19;;;28.22;43.63
61408;BME280;47274;43.054;25.146;2023-07-13T07:17:53;95753.53;;;28.22;44.90
61408;BME280;47274;43.054;25.146;2023-07-13T07:20:21;95749.63;;;28.25;45.42
61408;BME280;47274;43.054;25.146;2023-07-13T07:22:47;95771.44;;;28.47;44.74
61408;BME280;47274;43.054;25.146;2023-07-13T07:25:14;95734.53;;;28.57;42.88
61408;BME280;47274;43.054;25.146;2023-07-13T07:27:40;95757.84;;;29.08;44.22
61408;BME280;47274;43.054;25.146;2023-07-13T07:30:06;95751.41;;;28.94;42.69
61408;BME280;47274;43.054;25.146;2023-07-13T07:32:32;95736.44;;;29.10;45.22
61408;BME280;47274;43.054;25.146;2023-07-13T07:34:58;95758.63;;;29.03;40.48
61408;BME280;47274;43.054;25.146;2023-07-13T07:37:24;95747.06;;;29.20;45.01
61408;BME280;47274;43.054;25.146;2023-07-13T07:39:50;95737.91;;;28.90;41.77
61408;BME280;47274;43.054;25.146;2023-07-13T07:42:16;95735.72;;;28.77;41.69
61408;BME280;47274;43.054;25.146;2023-07-13T07:44:42;95757.44;;;29.47;45.38
61408;BME280;47274;43.054;25.146;2023-07-13T07:47:08;95771.09;;;30.17;43.81
61408;BME280;47274;43.054;25.146;2023-07-13T07:49:35;95753.06;;;29.78;45.68
61408;BME280;47274;43.054;25.146;2023-07-13T07:52:02;95754.94;;;29.93;46.24
61408;BME280;47274;43.054;25.146;2023-07-13T07:54:27;95755.50;;;30.05;44.58
61408;BME280;47274;43.054;25.146;2023-07-13T07:56:53;95763.16;;;30.07;45.83
61408;BME280;47274;43.054;25.146;2023-07-13T07:59:19;95757.06;;;30.52;45.19
61408;BME280;47274;43.054;25.146;2023-07-13T08:01:45;95759.69;;;30.98;44.98
61408;BME280;47274;43.054;25.146;2023-07-13T08:04:13;95773.72;;;30.93;44.04
61408;BME280;47274;43.054;25.146;2023-07-13T08:06:39;95763.88;;;31.04;41.24
61408;BME280;47274;43.054;25.146;2023-07-13T08:09:05;95745.13;;;30.85;41.80
61408;BME280;47274;43.054;25.146;2023-07-13T08:11:31;95769.50;;;30.98;40.19
61408;BME280;47274;43.054;25.146;2023-07-13T08:13:57;95764.63;;;31.20;41.35
61408;BME280;47274;43.054;25.146;2023-07-13T08:16:23;95745.63;;;31.62;40.25
61408;BME280;47274;43.054;25.146;2023-07-13T08:18:49;95759.94;;;31.67;39.30
61408;BME280;47274;43.054;25.146;2023-07-13T08:21:15;95752.53;;;32.08;41.40
61408;BME280;47274;43.054;25.146;2023-07-13T08:23:41;95742.94;;;32.46;38.29
61408;BME280;47274;43.054;25.146;2023-07-13T08:26:08;95762.47;;;32.85;39.66
61408;BME280;47274;43.054;25.146;2023-07-13T08:28:33;95740.78;;;33.01;39.45
61408;BME280;47274;43.054;25.146;2023-07-13T08:31:04;95760.16;;;33.07;36.28
61408;BME280;47274;43.054;25.146;2023-07-13T08:33:30;95754.31;;;33.05;39.25
61408;BME280;47274;43.054;25.146;2023-07-13T08:35:56;95762.69;;;33.17;38.03
61408;BME280;47274;43.054;25.146;2023-07-13T08:38:22;95736.94;;;33.13;40.03
61408;BME280;47274;43.054;25.146;2023-07-13T08:40:53;95775.34;;;33.49;38.63
61408;BME280;47274;43.054;25.146;2023-07-13T08:43:26;95755.66;;;33.02;37.68
61408;BME280;47274;43.054;25.146;2023-07-13T08:45:56;95747.50;;;32.94;40.05
61408;BME280;47274;43.054;25.146;2023-07-13T08:48:27;95741.97;;;32.90;42.86
61408;BME280;47274;43.054;25.146;2023-07-13T08:54:01;95756.72;;;32.77;40.60
61408;BME280;47274;43.054;25.146;2023-07-13T08:56:29;95756.38;;;33.56;39.08
61408;BME280;47274;43.054;25.146;2023-07-13T08:58:58;95755.75;;;34.02;39.09
61408;BME280;47274;43.054;25.146;2023-07-13T09:01:59;95754.31;;;34.10;36.41
61408;BME280;47274;43.054;25.146;2023-07-13T09:04:37;95720.19;;;33.74;35.46
61408;BME280;47274;43.054;25.146;2023-07-13T09:13:02;95729.00;;;34.26;36.41
61408;BME280;47274;43.054;25.146;2023-07-13T09:15:39;95742.72;;;33.39;36.29
61408;BME280;47274;43.054;25.146;2023-07-13T09:18:11;95737.53;;;33.71;37.05
61408;BME280;47274;43.054;25.146;2023-07-13T09:21:02;95751.00;;;34.32;35.66
61408;BME280;47274;43.054;25.146;2023-07-13T09:23:30;95736.13;;;34.77;37.04
61408;BME280;47274;43.054;25.146;2023-07-13T09:29:06;95748.16;;;34.75;34.27
61408;BME280;47274;43.054;25.146;2023-07-13T09:31:39;95747.38;;;34.74;35.30
61408;BME280;47274;43.054;25.146;2023-07-13T09:34:12;95753.38;;;34.80;35.23
61408;BME280;47274;43.054;25.146;2023-07-13T09:36:38;95755.06;;;34.76;35.19
61408;BME280;47274;43.054;25.146;2023-07-13T09:39:25;95761.63;;;34.51;36.53
61408;BME280;47274;43.054;25.146;2023-07-13T09:42:20;95743.59;;;34.29;34.24
61408;BME280;47274;43.054;25.146;2023-07-13T09:47:25;95756.41;;;35.06;35.29
61408;BME280;47274;43.054;25.146;2023-07-13T09:49:57;95757.66;;;34.81;34.89
61408;BME280;47274;43.054;25.146;2023-07-13T09:52:25;95744.22;;;35.00;34.64
61408;BME280;47274;43.054;25.146;2023-07-13T09:54:53;95731.19;;;34.98;36.04
61408;BME280;47274;43.054;25.146;2023-07-13T09:57:27;95747.66;;;35.55;36.55
61408;BME280;47274;43.054;25.146;2023-07-13T09:59:55;95746.88;;;35.91;35.38
61408;BME280;47274;43.054;25.146;2023-07-13T10:04:57;95734.19;;;35.74;35.55
61408;BME280;47274;43.054;25.146;2023-07-13T10:07:24;95738.47;;;36.20;35.82
61408;BME280;47274;43.054;25.146;2023-07-13T10:09:57;95748.53;;;36.23;35.73
61408;BME280;47274;43.054;25.146;2023-07-13T10:12:24;95736.53;;;36.35;35.73
61408;BME280;47274;43.054;25.146;2023-07-13T10:14:55;95689.72;;;36.15;34.09
61408;BME280;47274;43.054;25.146;2023-07-13T10:17:32;95713.41;;;36.61;34.25
61408;BME280;47274;43.054;25.146;2023-07-13T10:20:04;95741.91;;;36.43;34.33
61408;BME280;47274;43.054;25.146;2023-07-13T10:22:44;95729.03;;;36.45;34.69
61408;BME280;47274;43.054;25.146;2023-07-13T10:25:20;95732.34;;;36.73;35.16
61408;BME280;47274;43.054;25.146;2023-07-13T10:27:50;95725.25;;;37.09;34.48
61408;BME280;47274;43.054;25.146;2023-07-13T10:30:41;95727.44;;;37.07;34.26
61408;BME280;47274;43.054;25.146;2023-07-13T10:33:10;95732.66;;;37.12;35.63
61408;BME280;47274;43.054;25.146;2023-07-13T10:35:39;95703.28;;;36.89;33.85
61408;BME280;47274;43.054;25.146;2023-07-13T10:38:11;95672.16;;;36.53;34.89
61408;BME280;47274;43.054;25.146;2023-07-13T10:40:42;95664.38;;;36.66;35.39
61408;BME280;47274;43.054;25.146;2023-07-13T10:43:25;95709.97;;;37.09;34.00
61408;BME280;47274;43.054;25.146;2023-07-13T10:45:54;95699.91;;;37.15;34.14
61408;BME280;47274;43.054;25.146;2023-07-13T10:48:22;95710.66;;;37.32;35.75
61408;BME280;47274;43.054;25.146;2023-07-13T10:50:50;95745.66;;;37.44;33.83
61408;BME280;47274;43.054;25.146;2023-07-13T10:53:37;95728.19;;;36.98;33.47
61408;BME280;47274;43.054;25.146;2023-07-13T10:58:43;95723.91;;;37.37;35.17
61408;BME280;47274;43.054;25.146;2023-07-13T11:01:15;95744.38;;;37.42;31.51
61408;BME280;47274;43.054;25.146;2023-07-13T11:03:59;95717.88;;;37.23;29.93
61408;BME280;47274;43.054;25.146;2023-07-13T11:08:58;95728.47;;;36.48;32.00
61408;BME280;47274;43.054;25.146;2023-07-13T11:18:53;95719.56;;;36.39;31.97
61408;BME280;47274;43.054;25.146;2023-07-13T11:21:34;95690.00;;;36.67;31.94
61408;BME280;47274;43.054;25.146;2023-07-13T11:24:16;95724.31;;;37.13;32.05
61408;BME280;47274;43.054;25.146;2023-07-13T11:31:41;95679.94;;;37.21;33.04
61408;BME280;47274;43.054;25.146;2023-07-13T11:34:15;95702.31;;;37.42;31.44
61408;BME280;47274;43.054;25.146;2023-07-13T11:36:43;95672.75;;;37.47;31.82
61408;BME280;47274;43.054;25.146;2023-07-13T11:39:18;95694.78;;;37.70;32.75
61408;BME280;47274;43.054;25.146;2023-07-13T11:41:50;95668.28;;;37.26;32.87
61408;BME280;47274;43.054;25.146;2023-07-13T11:44:20;95690.13;;;37.02;30.15
61408;BME280;47274;43.054;25.146;2023-07-13T11:46:51;95699.03;;;36.88;32.53
61408;BME280;47274;43.054;25.146;2023-07-13T11:49:20;95681.31;;;37.01;32.28
61408;BME280;47274;43.054;25.146;2023-07-13T11:51:47;95702.09;;;37.13;31.75
61408;BME280;47274;43.054;25.146;2023-07-13T11:54:33;95694.75;;;37.27;31.27
61408;BME280;47274;43.054;25.146;2023-07-13T11:57:20;95674.56;;;37.04;32.43
61408;BME280;47274;43.054;25.146;2023-07-13T11:59:49;95669.47;;;36.93;31.72
61408;BME280;47274;43.054;25.146;2023-07-13T12:02:32;95661.03;;;37.09;31.86
61408;BME280;47274;43.054;25.146;2023-07-13T12:05:00;95678.38;;;37.20;33.03
61408;BME280;47274;43.054;25.146;2023-07-13T12:07:29;95657.13;;;37.23;32.32
61408;BME280;47274;43.054;25.146;2023-07-13T12:10:23;95670.38;;;37.37;32.23
61408;BME280;47274;43.054;25.146;2023-07-13T12:13:00;95663.69;;;37.09;32.36
61408;BME280;47274;43.054;25.146;2023-07-13T12:15:35;95662.31;;;37.20;32.11
61408;BME280;47274;43.054;25.146;2023-07-13T12:18:02;95646.88;;;36.99;29.22
61408;BME280;47274;43.054;25.146;2023-07-13T12:20:36;95655.50;;;36.57;28.72
61408;BME280;47274;43.054;25.146;2023-07-13T12:23:05;95654.97;;;36.46;28.99
61408;BME280;47274;43.054;25.146;2023-07-13T12:25:31;95607.25;;;36.22;30.52
61408;BME280;47274;43.054;25.146;2023-07-13T12:27:57;95643.84;;;35.99;29.98
61408;BME280;47274;43.054;25.146;2023-07-13T12:30:32;95601.03;;;35.59;30.46
61408;BME280;47274;43.054;25.146;2023-07-13T12:33:11;95648.03;;;36.14;29.40
61408;BME280;47274;43.054;25.146;2023-07-13T12:35:47;95625.94;;;35.32;30.02
61408;BME280;47274;43.054;25.146;2023-07-13T12:38:13;95626.03;;;35.86;32.30
61408;BME280;47274;43.054;25.146;2023-07-13T12:40:40;95622.16;;;36.23;32.32
61408;BME280;47274;43.054;25.146;2023-07-13T12:43:11;95620.13;;;36.60;33.40
61408;BME280;47274;43.054;25.146;2023-07-13T12:45:38;95609.16;;;36.30;31.87
61408;BME280;47274;43.054;25.146;2023-07-13T12:48:11;95597.22;;;36.36;32.92
61408;BME280;47274;43.054;25.146;2023-07-13T12:50:41;95615.16;;;36.36;30.81
61408;BME280;47274;43.054;25.146;2023-07-13T12:53:18;95591.97;;;35.60;33.37
61408;BME280;47274;43.054;25.146;2023-07-13T12:55:56;95609.22;;;36.08;33.29
61408;BME280;47274;43.054;25.146;2023-07-13T12:58:28;95610.03;;;35.63;32.84
61408;BME280;47274;43.054;25.146;2023-07-13T13:00:57;95595.69;;;36.04;32.28
61408;BME280;47274;43.054;25.146;2023-07-13T13:03:33;95608.59;;;35.88;30.83
61408;BME280;47274;43.054;25.146;2023-07-13T13:08:49;95610.25;;;35.17;33.55
61408;BME280;47274;43.054;25.146;2023-07-13T13:11:16;95597.06;;;35.34;33.37
61408;BME280;47274;43.054;25.146;2023-07-13T13:13:43;95604.19;;;35.61;34.05
61408;BME280;47274;43.054;25.146;2023-07-13T13:18:43;95598.50;;;35.54;35.21
61408;BME280;47274;43.054;25.146;2023-07-13T13:21:10;95587.53;;;35.42;33.45
61408;BME280;47274;43.054;25.146;2023-07-13T13:23:36;95609.19;;;35.76;34.62
61408;BME280;47274;43.054;25.146;2023-07-13T13:26:05;95593.16;;;35.54;35.00
61408;BME280;47274;43.054;25.146;2023-07-13T13:28:32;95606.69;;;35.57;34.89
61408;BME280;47274;43.054;25.146;2023-07-13T13:30:58;95599.16;;;35.82;35.42
61408;BME280;47274;43.054;25.146;2023-07-13T13:33:23;95596.56;;;35.99;34.68
61408;BME280;47274;43.054;25.146;2023-07-13T13:35:49;95598.25;;;35.87;33.78
61408;BME280;47274;43.054;25.146;2023-07-13T13:38:17;95582.66;;;35.80;34.96
61408;BME280;47274;43.054;25.146;2023-07-13T13:40:45;95622.16;;;35.69;34.46